Wasilla, Alaska
Current Conditions -  °F | °C
As of 3:16 PM on Wednesday 22 Oct 2014 (Local Time) from PAWS Reporting Station
Clear Clear  
Wind Chill: 45°   Ceiling: Unl
Heat Index: 45°   Visibility: 10mi
Dew Point: 21°   Wind: 0mph
Humidity: 39%   Direction: NA
Pressure: 29.31"   Gusts: NA
Location:  61.58°N, 149.45°W
Report Text: PAWS 222316Z AUTO 00000KT 10SM CLR 07/M06 A2931 RMK AO1
Loading
Personal Weather Stations






























Interactive Weather Map
Tropical Storm Tracking
New forecast layout! Learn more

10-Day Weather Forecast

Advertisements
Track Severe Weather on mobile